createdAt,value
2018-01-10T00:02:00.552Z,6.65
2018-01-10T00:04:28.125Z,6.64
2018-01-10T00:06:55.690Z,6.57
2018-01-10T00:09:23.275Z,6.51
2018-01-10T00:11:50.842Z,6.43
2018-01-10T00:14:18.542Z,6.39
2018-01-10T00:16:46.106Z,6.36
2018-01-10T00:19:13.672Z,6.35
2018-01-10T00:21:41.250Z,6.32
2018-01-10T00:24:08.810Z,6.32
2018-01-10T00:26:36.459Z,6.34
2018-01-10T00:29:04.026Z,6.33
2018-01-10T00:31:31.591Z,6.30
2018-01-10T00:33:59.190Z,6.30
2018-01-10T00:36:26.819Z,6.33
2018-01-10T00:38:54.452Z,6.32
2018-01-10T00:41:22.018Z,6.32
2018-01-10T00:43:49.585Z,6.34
2018-01-10T00:46:17.158Z,6.35
2018-01-10T00:48:44.722Z,6.37
2018-01-10T00:51:12.350Z,6.31
2018-01-10T00:53:39.910Z,6.35
2018-01-10T00:56:07.463Z,6.33
2018-01-10T00:58:35.030Z,6.35
2018-01-10T01:01:02.598Z,6.31
2018-01-10T01:03:30.228Z,6.31
2018-01-10T01:05:57.843Z,6.29
2018-01-10T01:08:25.411Z,6.24
2018-01-10T01:10:53.000Z,6.16
2018-01-10T01:13:20.570Z,6.13
2018-01-10T01:15:48.182Z,6.10
2018-01-10T01:18:15.806Z,6.06
2018-01-10T01:20:43.370Z,6.04
2018-01-10T01:23:10.939Z,6.05
2018-01-10T01:25:38.494Z,6.01
2018-01-10T01:28:06.170Z,5.96
2018-01-10T01:30:33.790Z,5.84
2018-01-10T01:33:01.355Z,5.84
2018-01-10T01:35:28.934Z,5.86
2018-01-10T01:37:56.561Z,5.92
2018-01-10T01:40:24.178Z,5.95
2018-01-10T01:42:51.812Z,5.92
2018-01-10T01:45:19.435Z,5.93
2018-01-10T01:47:47.022Z,5.94
2018-01-10T01:50:14.590Z,5.96
2018-01-10T01:52:42.272Z,5.92
2018-01-10T01:55:09.845Z,5.86
2018-01-10T01:57:37.415Z,5.83
2018-01-10T02:00:04.986Z,5.83
2018-01-10T02:02:32.550Z,5.89
2018-01-10T02:05:00.163Z,5.82
2018-01-10T02:07:27.707Z,5.79
2018-01-10T02:09:55.326Z,5.78
2018-01-10T02:12:22.893Z,5.79
2018-01-10T02:14:50.457Z,5.77
2018-01-10T02:17:18.098Z,5.80
2018-01-10T02:19:45.730Z,5.79
2018-01-10T02:22:13.306Z,5.80
2018-01-10T02:24:40.942Z,5.80
2018-01-10T02:27:08.568Z,5.75
2018-01-10T02:29:36.247Z,5.73
2018-01-10T02:32:03.813Z,5.72
2018-01-10T02:34:31.375Z,5.72
2018-01-10T02:36:59.023Z,5.66
2018-01-10T02:39:26.595Z,5.67
2018-01-10T02:41:54.207Z,5.65
2018-01-10T02:44:21.836Z,5.61
2018-01-10T02:46:49.474Z,5.58
2018-01-10T02:49:17.047Z,5.55
2018-01-10T02:51:44.611Z,5.51
2018-01-10T02:54:12.287Z,5.47
2018-01-10T02:56:39.831Z,5.41
2018-01-10T02:59:07.452Z,5.36
2018-01-10T03:01:35.011Z,5.33
2018-01-10T03:04:02.578Z,5.30
2018-01-10T03:06:30.239Z,5.30
2018-01-10T03:08:57.858Z,5.28
2018-01-10T03:11:25.422Z,5.26
2018-01-10T03:13:53.059Z,5.30
2018-01-10T03:16:20.622Z,5.29
2018-01-10T03:18:48.242Z,5.31
2018-01-10T03:21:15.861Z,5.32
2018-01-10T03:23:43.498Z,5.32
2018-01-10T03:26:11.070Z,5.35
2018-01-10T03:28:38.699Z,5.34
2018-01-10T03:31:06.327Z,5.31
2018-01-10T03:33:33.958Z,5.29
2018-01-10T03:36:01.536Z,5.27
2018-01-10T03:38:29.123Z,5.26
2018-01-10T03:40:56.685Z,5.23
2018-01-10T03:43:24.297Z,5.18
2018-01-10T03:45:51.857Z,5.13
2018-01-10T03:48:19.417Z,5.07
2018-01-10T03:50:47.003Z,4.97
2018-01-10T03:53:14.630Z,4.88
2018-01-10T03:55:42.289Z,4.82
2018-01-10T03:58:09.862Z,4.71
2018-01-10T04:00:37.433Z,4.68
2018-01-10T04:03:05.071Z,4.66
2018-01-10T04:05:32.694Z,4.62
2018-01-10T04:08:00.375Z,4.58
2018-01-10T04:10:27.938Z,4.54
2018-01-10T04:12:55.502Z,4.51
2018-01-10T04:15:23.075Z,4.48
2018-01-10T04:17:50.634Z,4.46
2018-01-10T04:20:18.286Z,4.39
2018-01-10T04:22:45.892Z,4.32
2018-01-10T04:25:13.511Z,4.25
2018-01-10T04:27:41.083Z,4.22
2018-01-10T04:30:08.655Z,4.21
2018-01-10T04:32:36.276Z,4.20
2018-01-10T04:35:03.908Z,4.16
2018-01-10T04:37:31.458Z,4.17
2018-01-10T04:39:59.026Z,4.18
2018-01-10T04:42:26.594Z,4.22
2018-01-10T04:44:54.274Z,4.21
2018-01-10T04:47:21.838Z,4.20
2018-01-10T04:49:49.409Z,4.22
2018-01-10T04:52:16.992Z,4.20
2018-01-10T04:54:44.615Z,4.20
2018-01-10T04:57:12.238Z,4.14
2018-01-10T04:59:39.853Z,4.10
2018-01-10T05:02:07.418Z,4.08
2018-01-10T05:04:35.098Z,4.07
2018-01-10T05:07:02.657Z,4.02
2018-01-10T05:09:30.325Z,4.04
2018-01-10T05:11:57.890Z,4.03
2018-01-10T05:14:25.522Z,4.03
2018-01-10T05:16:53.156Z,4.03
2018-01-10T05:19:20.780Z,4.03
2018-01-10T05:21:48.396Z,4.02
2018-01-10T05:24:15.958Z,3.98
2018-01-10T05:26:43.522Z,3.96
2018-01-10T05:29:11.168Z,4.03
2018-01-10T05:31:38.807Z,4.03
2018-01-10T05:34:06.456Z,4.08
2018-01-10T05:36:34.022Z,4.21
2018-01-10T05:39:01.590Z,4.39
2018-01-10T05:41:29.165Z,4.54
2018-01-10T05:43:56.800Z,4.68
2018-01-10T05:46:24.422Z,4.84
2018-01-10T05:48:52.028Z,4.95
2018-01-10T05:51:19.597Z,5.02
2018-01-10T05:53:47.174Z,5.11
2018-01-10T05:56:14.753Z,5.17
2018-01-10T05:58:42.372Z,5.22
2018-01-10T06:01:09.945Z,5.27
2018-01-10T06:03:37.521Z,5.35
2018-01-10T06:06:05.118Z,5.47
2018-01-10T06:08:32.671Z,5.32
2018-01-10T06:11:00.275Z,5.40
2018-01-10T06:13:27.842Z,5.43
2018-01-10T06:15:55.421Z,5.50
2018-01-10T06:18:22.995Z,5.54
2018-01-10T06:20:50.571Z,5.53
2018-01-10T06:23:18.260Z,5.56
2018-01-10T06:25:45.830Z,5.55
2018-01-10T06:28:13.401Z,5.57
2018-01-10T06:30:41.049Z,5.59
2018-01-10T06:33:08.691Z,5.65
2018-01-10T06:35:36.315Z,5.71
2018-01-10T06:38:03.889Z,5.74
2018-01-10T06:40:31.462Z,5.76
2018-01-10T06:42:59.107Z,5.76
2018-01-10T06:45:26.678Z,5.77
2018-01-10T06:47:54.369Z,5.82
2018-01-10T06:50:21.943Z,5.89
2018-01-10T06:52:49.567Z,5.91
2018-01-10T06:55:17.229Z,5.92
2018-01-10T06:57:44.807Z,6.02
2018-01-10T07:00:12.446Z,6.08
2018-01-10T07:02:40.014Z,6.16
2018-01-10T07:05:07.588Z,6.22
2018-01-10T07:07:35.175Z,6.22
2018-01-10T07:10:02.804Z,6.29
2018-01-10T07:12:30.497Z,6.37
2018-01-10T07:14:58.080Z,6.43
2018-01-10T07:17:25.712Z,6.47
2018-01-10T07:19:53.352Z,6.48
2018-01-10T07:22:20.936Z,6.54
2018-01-10T07:24:48.629Z,6.62
2018-01-10T07:27:16.199Z,6.62
2018-01-10T07:29:43.769Z,6.73
2018-01-10T07:32:11.350Z,6.77
2018-01-10T07:34:38.942Z,6.78
2018-01-10T07:37:06.572Z,6.88
2018-01-10T07:39:34.147Z,7.03
2018-01-10T07:42:01.715Z,7.08
2018-01-10T07:44:29.286Z,7.14
2018-01-10T07:46:56.910Z,7.22
2018-01-10T07:49:24.535Z,7.26
2018-01-10T07:51:52.101Z,7.32
2018-01-10T07:54:19.739Z,7.32
2018-01-10T07:56:47.323Z,7.40
2018-01-10T07:59:14.951Z,7.36
2018-01-10T08:01:42.626Z,7.39
2018-01-10T08:04:10.251Z,7.34
2018-01-10T08:06:37.832Z,7.44
2018-01-10T08:09:05.447Z,7.60
2018-01-10T08:11:33.014Z,7.47
2018-01-10T08:14:00.703Z,7.61
2018-01-10T08:16:28.275Z,7.69
2018-01-10T08:18:55.907Z,7.77
2018-01-10T08:21:23.488Z,7.79
2018-01-10T08:23:51.124Z,7.75
2018-01-10T08:26:18.759Z,7.72
2018-01-10T08:28:46.327Z,7.71
2018-01-10T08:31:13.891Z,7.80
2018-01-10T08:33:41.511Z,7.91
2018-01-10T08:36:09.079Z,7.99
2018-01-10T08:38:36.704Z,8.18
2018-01-10T08:41:04.285Z,8.23
2018-01-10T08:43:31.854Z,8.33
2018-01-10T08:45:59.430Z,8.48
2018-01-10T08:48:27.850Z,8.58
2018-01-10T08:50:55.474Z,8.68
2018-01-10T08:53:23.101Z,8.64
2018-01-10T08:55:50.662Z,8.60
2018-01-10T08:58:18.311Z,8.53
2018-01-10T09:00:45.883Z,8.45
2018-01-10T09:03:13.583Z,8.44
2018-01-10T09:05:41.148Z,8.45
2018-01-10T09:08:08.706Z,8.53
2018-01-10T09:10:36.281Z,8.53
2018-01-10T09:13:03.857Z,8.37
2018-01-10T09:15:31.539Z,8.46
2018-01-10T09:17:59.168Z,8.57
2018-01-10T09:20:26.744Z,8.72
2018-01-10T09:22:54.322Z,8.82
2018-01-10T09:25:21.942Z,8.75
2018-01-10T09:27:49.618Z,8.55
2018-01-10T09:30:17.186Z,8.45
2018-01-10T09:32:44.758Z,8.37
2018-01-10T09:35:12.373Z,8.35
2018-01-10T09:37:39.939Z,8.30
2018-01-10T09:40:07.562Z,8.31
2018-01-10T09:42:35.131Z,8.16
2018-01-10T09:45:02.758Z,8.16
2018-01-10T09:47:30.342Z,8.09
2018-01-10T09:49:57.919Z,7.96
2018-01-10T09:52:25.557Z,7.91
2018-01-10T09:54:53.127Z,7.85
2018-01-10T09:57:20.759Z,7.90
2018-01-10T09:59:48.395Z,7.92
2018-01-10T10:02:16.019Z,7.79
2018-01-10T10:04:43.634Z,7.64
2018-01-10T10:07:11.258Z,7.64
2018-01-10T10:09:38.883Z,7.55
2018-01-10T10:12:06.464Z,7.54
2018-01-10T10:14:34.033Z,7.46
2018-01-10T10:17:01.731Z,7.61
2018-01-10T10:19:29.307Z,7.58
2018-01-10T10:21:56.878Z,7.61
2018-01-10T10:24:24.625Z,7.75
2018-01-10T10:26:52.265Z,7.79
2018-01-10T10:29:20.001Z,7.67
2018-01-10T10:31:47.571Z,7.60
2018-01-10T10:34:15.191Z,7.47
2018-01-10T10:36:42.823Z,7.41
2018-01-10T10:39:10.390Z,7.29
2018-01-10T10:41:38.071Z,7.46
2018-01-10T10:44:05.642Z,7.56
2018-01-10T10:46:33.207Z,7.49
2018-01-10T10:49:00.845Z,7.61
2018-01-10T10:51:28.411Z,7.59
2018-01-10T10:53:56.094Z,7.71
2018-01-10T10:56:23.671Z,7.75
2018-01-10T10:58:51.238Z,7.79
2018-01-10T11:01:18.810Z,7.87
2018-01-10T11:03:46.371Z,8.00
2018-01-10T11:06:14.074Z,8.15
2018-01-10T11:08:41.703Z,8.17
2018-01-10T11:11:09.277Z,8.07
2018-01-10T11:13:36.859Z,8.08
2018-01-10T11:16:04.436Z,8.00
2018-01-10T11:18:32.134Z,8.03
2018-01-10T11:20:59.702Z,8.11
2018-01-10T11:23:27.327Z,8.11
2018-01-10T11:25:54.984Z,8.21
2018-01-10T11:28:27.802Z,8.19
2018-01-10T11:30:55.422Z,8.36
2018-01-10T11:33:22.994Z,8.41
2018-01-10T11:35:50.624Z,8.33
2018-01-10T11:38:18.201Z,8.36
2018-01-10T11:40:45.822Z,8.35
2018-01-10T11:43:13.498Z,8.58
2018-01-10T11:45:41.077Z,8.53
2018-01-10T11:48:08.713Z,8.46
2018-01-10T11:50:36.291Z,8.49
2018-01-10T11:53:03.867Z,8.41
2018-01-10T11:55:31.618Z,8.38
2018-01-10T11:57:59.190Z,8.32
2018-01-10T12:00:26.755Z,8.39
2018-01-10T12:02:54.330Z,8.58
2018-01-10T12:05:21.901Z,8.59
2018-01-10T12:07:49.622Z,8.48
2018-01-10T12:10:17.246Z,8.35
2018-01-10T12:12:44.814Z,8.27
2018-01-10T12:15:12.388Z,8.40
2018-01-10T12:17:40.015Z,8.28
2018-01-10T12:20:07.699Z,8.21
2018-01-10T12:22:35.268Z,8.33
2018-01-10T12:25:02.854Z,8.35
2018-01-10T12:27:30.430Z,8.36
2018-01-10T12:29:57.998Z,8.25
2018-01-10T12:32:25.646Z,8.32
2018-01-10T12:34:53.217Z,7.96
2018-01-10T12:37:20.781Z,7.93
2018-01-10T12:39:48.363Z,7.95
2018-01-10T12:42:15.940Z,7.95
2018-01-10T12:44:43.571Z,7.89
2018-01-10T12:47:11.202Z,8.01
2018-01-10T12:49:38.765Z,7.86
2018-01-10T12:52:06.407Z,7.95
2018-01-10T12:54:33.987Z,7.99
2018-01-10T12:57:01.625Z,7.97
2018-01-10T12:59:29.213Z,7.99
2018-01-10T13:01:56.797Z,7.91
2018-01-10T13:04:24.437Z,8.04
2018-01-10T13:06:52.004Z,8.22
2018-01-10T13:09:19.627Z,8.30
2018-01-10T13:11:47.266Z,8.43
2018-01-10T13:14:14.842Z,8.31
2018-01-10T13:16:42.438Z,8.40
2018-01-10T13:19:10.085Z,8.46
2018-01-10T13:21:37.738Z,8.43
2018-01-10T13:24:05.295Z,8.35
2018-01-10T13:26:32.865Z,8.35
2018-01-10T13:29:00.444Z,8.24
2018-01-10T13:31:28.024Z,8.20
2018-01-10T13:33:55.658Z,8.16
2018-01-10T13:36:23.226Z,8.13
2018-01-10T13:38:50.795Z,8.17
2018-01-10T13:41:18.371Z,8.05
2018-01-10T13:43:46.015Z,7.93
2018-01-10T13:46:13.718Z,7.79
2018-01-10T13:48:41.299Z,7.68
2018-01-10T13:51:08.915Z,7.57
2018-01-10T13:53:36.490Z,7.52
2018-01-10T13:56:04.128Z,7.50
2018-01-10T13:58:31.748Z,7.51
2018-01-10T14:00:59.318Z,7.59
2018-01-10T14:03:26.886Z,7.44
2018-01-10T14:05:54.472Z,7.31
2018-01-10T14:08:22.037Z,7.18
2018-01-10T14:10:49.658Z,7.07
2018-01-10T14:13:17.290Z,7.01
2018-01-10T14:15:44.866Z,7.12
2018-01-10T14:18:12.505Z,7.08
2018-01-10T14:20:40.117Z,6.94
2018-01-10T14:23:07.751Z,6.94
2018-01-10T14:25:35.375Z,6.97
2018-01-10T14:28:03.003Z,6.73
2018-01-10T14:30:30.578Z,6.87
2018-01-10T14:32:58.150Z,6.95
2018-01-10T14:35:25.790Z,6.93
2018-01-10T14:37:53.376Z,6.95
2018-01-10T14:40:20.950Z,6.91
2018-01-10T14:42:48.506Z,6.97
2018-01-10T14:45:16.080Z,6.94
2018-01-10T14:47:43.758Z,6.88
2018-01-10T14:50:11.331Z,6.89
2018-01-10T14:52:38.896Z,6.67
2018-01-10T14:55:06.489Z,6.81
2018-01-10T14:57:34.054Z,6.83
2018-01-10T15:00:01.673Z,6.86
2018-01-10T15:02:29.231Z,6.90
2018-01-10T15:04:56.797Z,6.88
2018-01-10T15:07:24.375Z,6.92
2018-01-10T15:09:51.948Z,6.86
2018-01-10T15:12:19.570Z,6.95
2018-01-10T15:14:47.134Z,6.89
2018-01-10T15:17:14.759Z,6.89
2018-01-10T15:19:42.337Z,6.83
2018-01-10T15:22:09.917Z,6.84
2018-01-10T15:24:37.543Z,6.79
2018-01-10T15:27:05.118Z,6.87
2018-01-10T15:29:32.687Z,6.85
2018-01-10T15:32:00.266Z,6.90
2018-01-10T15:34:27.837Z,6.84
2018-01-10T15:36:55.501Z,6.83
2018-01-10T15:39:23.059Z,6.80
2018-01-10T15:41:50.626Z,6.89
2018-01-10T15:44:18.255Z,6.92
2018-01-10T15:46:45.849Z,6.98
2018-01-10T15:49:13.480Z,6.99
2018-01-10T15:51:41.050Z,7.03
2018-01-10T15:54:08.622Z,7.13
2018-01-10T15:56:36.230Z,7.07
2018-01-10T15:59:03.799Z,7.08
2018-01-10T16:01:32.255Z,7.09
2018-01-10T16:03:59.826Z,7.10
2018-01-10T16:06:27.394Z,7.11
2018-01-10T16:08:54.964Z,7.05
2018-01-10T16:11:22.591Z,6.83
2018-01-10T16:13:50.213Z,6.83
2018-01-10T16:16:17.783Z,6.83
2018-01-10T16:18:45.455Z,6.82
2018-01-10T16:21:13.044Z,6.80
2018-01-10T16:23:40.618Z,6.83
2018-01-10T16:26:08.295Z,6.86
2018-01-10T16:28:35.963Z,6.82
2018-01-10T16:31:03.588Z,6.71
2018-01-10T16:33:31.242Z,6.63
2018-01-10T16:35:58.832Z,6.57
2018-01-10T16:38:26.434Z,6.63
2018-01-10T16:40:53.996Z,6.67
2018-01-10T16:43:21.572Z,6.69
2018-01-10T16:45:49.154Z,6.66
2018-01-10T16:48:16.787Z,6.73
2018-01-10T16:50:44.398Z,6.70
2018-01-10T16:53:12.034Z,6.74
2018-01-10T16:55:39.629Z,6.72
2018-01-10T16:58:07.267Z,6.64
2018-01-10T17:00:34.906Z,6.57
2018-01-10T17:03:02.599Z,6.65
2018-01-10T17:05:30.182Z,6.66
2018-01-10T17:07:57.764Z,6.69
2018-01-10T17:10:25.329Z,6.75
2018-01-10T17:12:52.898Z,6.85
2018-01-10T17:15:20.574Z,6.87
2018-01-10T17:17:48.230Z,6.72
2018-01-10T17:20:15.791Z,6.75
2018-01-10T17:22:43.438Z,6.75
2018-01-10T17:25:11.025Z,6.74
2018-01-10T17:27:38.734Z,6.77
2018-01-10T17:30:06.383Z,6.81
2018-01-10T17:32:33.952Z,6.80
2018-01-10T17:35:01.523Z,6.85
2018-01-10T17:37:29.201Z,6.92
2018-01-10T17:39:56.856Z,6.84
2018-01-10T17:42:24.481Z,6.90
2018-01-10T17:44:52.090Z,6.90
2018-01-10T17:47:19.662Z,6.98
2018-01-10T17:49:47.287Z,7.01
2018-01-10T17:52:14.928Z,7.09
2018-01-10T17:54:42.498Z,7.05
2018-01-10T17:57:10.068Z,7.10
2018-01-10T17:59:37.652Z,7.02
2018-01-10T18:02:05.591Z,7.03
2018-01-10T18:04:33.238Z,7.02
2018-01-10T18:07:00.814Z,7.03
2018-01-10T18:09:28.383Z,7.02
2018-01-10T18:11:56.028Z,7.03
2018-01-10T18:14:23.654Z,7.08
2018-01-10T18:16:51.347Z,7.09
2018-01-10T18:19:18.927Z,7.08
2018-01-10T18:21:46.525Z,7.03
2018-01-10T18:24:14.099Z,7.00
2018-01-10T18:26:41.727Z,6.97
2018-01-10T18:29:09.357Z,6.90
2018-01-10T18:31:36.987Z,6.93
2018-01-10T18:34:04.614Z,6.95
2018-01-10T18:36:32.360Z,6.88
2018-01-10T18:38:59.959Z,6.85
2018-01-10T18:41:27.644Z,6.86
2018-01-10T18:43:55.296Z,6.79
2018-01-10T18:46:22.931Z,6.68
2018-01-10T18:48:50.535Z,6.63
2018-01-10T18:51:18.167Z,6.59
2018-01-10T18:53:45.813Z,6.56
2018-01-10T18:56:13.448Z,6.54
2018-01-10T18:58:41.046Z,6.53
2018-01-10T19:01:08.720Z,6.52
2018-01-10T19:03:36.335Z,6.51
2018-01-10T19:06:03.997Z,6.55
2018-01-10T19:08:31.565Z,6.57
2018-01-10T19:10:59.157Z,6.52
2018-01-10T19:13:26.756Z,6.53
2018-01-10T19:15:54.343Z,6.56
2018-01-10T19:18:22.061Z,6.56
2018-01-10T19:20:49.691Z,6.59
2018-01-10T19:23:17.329Z,6.57
2018-01-10T19:25:44.899Z,6.54
2018-01-10T19:28:12.458Z,6.58
2018-01-10T19:30:40.082Z,6.60
2018-01-10T19:33:07.650Z,6.55
2018-01-10T19:35:35.200Z,6.63
2018-01-10T19:38:02.793Z,6.68
2018-01-10T19:40:30.344Z,6.75
2018-01-10T19:42:57.983Z,6.78
2018-01-10T19:45:25.573Z,6.79
2018-01-10T19:47:53.161Z,6.72
2018-01-10T19:50:20.754Z,6.75
2018-01-10T19:52:48.592Z,6.79
2018-01-10T19:55:16.291Z,6.83
2018-01-10T19:57:43.905Z,6.84
2018-01-10T20:00:11.506Z,6.88
2018-01-10T20:02:39.082Z,6.88
2018-01-10T20:05:06.725Z,6.85
2018-01-10T20:07:34.361Z,6.88
2018-01-10T20:10:01.930Z,6.88
2018-01-10T20:12:29.503Z,6.86
2018-01-10T20:14:57.105Z,6.87
2018-01-10T20:17:24.683Z,6.88
2018-01-10T20:19:52.363Z,6.89
2018-01-10T20:22:19.938Z,6.92
2018-01-10T20:24:47.570Z,6.92
2018-01-10T20:27:15.145Z,6.84
2018-01-10T20:29:42.724Z,6.86
2018-01-10T20:32:10.447Z,6.89
2018-01-10T20:34:38.006Z,6.85
2018-01-10T20:37:05.638Z,6.81
2018-01-10T20:39:33.227Z,6.79
2018-01-10T20:42:00.877Z,6.73
2018-01-10T20:44:28.563Z,6.67
2018-01-10T20:46:56.143Z,6.64
2018-01-10T20:49:23.733Z,6.60
2018-01-10T20:51:51.314Z,6.59
2018-01-10T20:54:18.893Z,6.58
2018-01-10T20:56:46.514Z,6.57
2018-01-10T20:59:14.074Z,6.60
2018-01-10T21:01:41.702Z,6.65
2018-01-10T21:04:09.311Z,6.69
2018-01-10T21:06:36.943Z,6.74
2018-01-10T21:09:04.650Z,6.74
2018-01-10T21:11:32.275Z,6.74
2018-01-10T21:13:59.839Z,6.74
2018-01-10T21:16:27.466Z,6.74
2018-01-10T21:18:55.083Z,6.73
2018-01-10T21:21:22.726Z,6.66
2018-01-10T21:23:50.304Z,6.69
2018-01-10T21:26:17.876Z,6.72
2018-01-10T21:28:45.502Z,6.68
2018-01-10T21:31:13.062Z,6.60
2018-01-10T21:33:40.710Z,6.66
2018-01-10T21:36:08.291Z,6.66
2018-01-10T21:38:35.874Z,6.67
2018-01-10T21:41:03.451Z,6.61
2018-01-10T21:43:31.023Z,6.70
2018-01-10T21:45:58.647Z,6.67
2018-01-10T21:48:26.228Z,6.66
2018-01-10T21:50:53.783Z,6.65
2018-01-10T21:53:21.358Z,6.73
2018-01-10T21:55:48.899Z,6.64
2018-01-10T21:58:16.571Z,6.73
2018-01-10T22:00:44.134Z,6.78
2018-01-10T22:03:11.766Z,6.66
2018-01-10T22:05:39.351Z,6.70
2018-01-10T22:08:06.913Z,6.77
2018-01-10T22:10:34.590Z,6.79
2018-01-10T22:13:02.163Z,6.74
2018-01-10T22:15:29.734Z,6.77
2018-01-10T22:17:57.306Z,6.77
2018-01-10T22:20:24.958Z,6.83
2018-01-10T22:22:52.607Z,6.84
2018-01-10T22:25:20.185Z,6.88
2018-01-10T22:27:47.754Z,6.87
2018-01-10T22:30:15.335Z,6.90
2018-01-10T22:32:42.964Z,6.85
2018-01-10T22:35:10.646Z,6.84
2018-01-10T22:37:38.218Z,6.83
2018-01-10T22:40:05.786Z,6.83
2018-01-10T22:42:33.354Z,6.82
2018-01-10T22:45:00.971Z,6.78
2018-01-10T22:47:28.567Z,6.76
2018-01-10T22:49:56.139Z,6.75
2018-01-10T22:52:23.685Z,6.78
2018-01-10T22:54:51.261Z,6.76
2018-01-10T22:57:18.875Z,6.72
2018-01-10T22:59:46.491Z,6.71
2018-01-10T23:02:14.112Z,6.76
2018-01-10T23:04:41.680Z,6.76
2018-01-10T23:07:09.306Z,6.77
2018-01-10T23:09:36.882Z,6.79
2018-01-10T23:12:04.583Z,6.80
2018-01-10T23:14:32.146Z,6.70
2018-01-10T23:16:59.710Z,6.71
2018-01-10T23:19:27.344Z,6.67
2018-01-10T23:21:54.906Z,6.64
2018-01-10T23:24:22.523Z,6.64
2018-01-10T23:26:50.146Z,6.64
2018-01-10T23:29:17.752Z,6.64
2018-01-10T23:31:45.318Z,6.61
2018-01-10T23:34:12.946Z,6.59
2018-01-10T23:36:40.619Z,6.57
2018-01-10T23:39:08.192Z,6.64
2018-01-10T23:41:35.755Z,6.60
2018-01-10T23:44:03.327Z,6.53
2018-01-10T23:46:30.950Z,6.50
2018-01-10T23:48:58.567Z,6.51
2018-01-10T23:51:26.135Z,6.52
2018-01-10T23:53:53.699Z,6.57
2018-01-10T23:56:21.274Z,6.61
2018-01-10T23:58:48.894Z,6.47
